Time;durP1;ratioP1;P1;durP2;ratioP2;P2;SDS_P1;SDS_P2;PMS_P1;PMS_P2;Temp;Humidity;BMP_temperature;BMP_pressure;BME280_temperature;BME280_humidity;BME280_pressure;Samples;Min_cycle;Max_cycle;Signal;HPM_P1;HPM_P2
2023/10/27 00:00:36;;;;;;;5.78;5.28;;;15.90;71.80;;;;;;5114090;28;20181;-69
2023/10/27 00:03:01;;;;;;;5.75;5.25;;;15.90;71.80;;;;;;5114419;28;20173;-70
2023/10/27 00:05:27;;;;;;;5.80;5.22;;;15.90;71.60;;;;;;5114847;28;20177;-69
2023/10/27 00:07:52;;;;;;;6.10;5.63;;;15.90;71.80;;;;;;5114043;28;20180;-69
2023/10/27 00:10:18;;;;;;;5.75;5.25;;;15.80;71.70;;;;;;5114204;28;20175;-69
2023/10/27 00:12:43;;;;;;;5.60;5.10;;;15.90;71.80;;;;;;5114741;28;20180;-69
2023/10/27 00:15:09;;;;;;;5.57;5.07;;;15.90;71.70;;;;;;5113556;28;20201;-69
2023/10/27 00:17:35;;;;;;;5.32;4.93;;;15.90;71.70;;;;;;5114605;28;20230;-69
2023/10/27 00:20:01;;;;;;;6.13;5.63;;;15.80;71.70;;;;;;5114120;28;20631;-69
2023/10/27 00:22:27;;;;;;;6.18;5.68;;;15.80;71.70;;;;;;5113758;28;20251;-69
2023/10/27 00:24:53;;;;;;;6.07;5.53;;;15.80;71.70;;;;;;5114412;28;20209;-69
2023/10/27 00:27:20;;;;;;;6.75;6.05;;;15.80;71.70;;;;;;5114183;28;20530;-69
2023/10/27 00:29:45;;;;;;;5.40;4.90;;;15.90;71.70;;;;;;5113720;28;20233;-68
2023/10/27 00:32:11;;;;;;;5.47;4.97;;;15.80;71.70;;;;;;5113959;28;20212;-69
2023/10/27 00:34:37;;;;;;;6.38;5.80;;;15.80;71.80;;;;;;5114095;28;20264;-69
2023/10/27 00:37:02;;;;;;;6.38;5.78;;;15.80;71.70;;;;;;5113052;28;20185;-69
2023/10/27 00:39:28;;;;;;;6.35;5.75;;;15.80;71.80;;;;;;5114066;28;20172;-68
2023/10/27 00:41:53;;;;;;;5.68;5.18;;;15.80;71.70;;;;;;5113928;28;20173;-69
2023/10/27 00:44:19;;;;;;;5.82;5.22;;;15.80;71.80;;;;;;5112821;28;20199;-68
2023/10/27 00:46:44;;;;;;;5.97;5.38;;;15.80;71.80;;;;;;5114034;28;20177;-69
2023/10/27 00:49:11;;;;;;;5.93;5.43;;;15.80;71.80;;;;;;5113217;28;20213;-70
2023/10/27 00:51:37;;;;;;;6.00;5.50;;;15.80;71.70;;;;;;5113077;28;20291;-69
2023/10/27 00:54:05;;;;;;;6.38;5.78;;;15.80;71.80;;;;;;5095248;28;20207;-72
2023/10/27 00:56:30;;;;;;;6.00;5.38;;;15.80;71.80;;;;;;5095980;28;20673;-70
2023/10/27 00:58:57;;;;;;;5.72;5.22;;;15.80;71.80;;;;;;5112971;28;20169;-69
2023/10/27 01:01:22;;;;;;;6.10;5.50;;;15.80;71.80;;;;;;5113612;28;20181;-69
2023/10/27 01:03:48;;;;;;;6.30;5.82;;;15.80;71.70;;;;;;5112774;28;20690;-69
2023/10/27 01:06:14;;;;;;;6.57;5.80;;;15.80;71.80;;;;;;5094951;28;20654;-69
2023/10/27 01:08:40;;;;;;;6.68;5.95;;;15.80;71.70;;;;;;5113483;28;20200;-69
2023/10/27 01:11:06;;;;;;;6.25;5.68;;;15.80;71.80;;;;;;5112616;28;20208;-70
2023/10/27 01:13:32;;;;;;;6.18;5.60;;;15.80;71.80;;;;;;5095581;28;20173;-70
2023/10/27 01:15:57;;;;;;;5.82;5.32;;;15.80;71.80;;;;;;5113241;28;20184;-69
2023/10/27 01:18:23;;;;;;;6.18;5.57;;;15.70;71.70;;;;;;5112428;28;20176;-69
2023/10/27 01:20:48;;;;;;;6.68;6.05;;;15.80;71.80;;;;;;5113511;28;20176;-69
2023/10/27 01:23:14;;;;;;;6.95;6.30;;;15.80;71.80;;;;;;5113266;28;20176;-70
2023/10/27 01:25:39;;;;;;;6.43;5.82;;;15.80;71.80;;;;;;5112688;28;20188;-69
2023/10/27 01:28:06;;;;;;;6.80;6.20;;;15.70;71.70;;;;;;5113423;28;20173;-69
2023/10/27 01:30:32;;;;;;;7.05;6.35;;;15.80;71.80;;;;;;5113268;28;20694;-69
2023/10/27 01:32:57;;;;;;;7.28;6.68;;;15.70;71.70;;;;;;5112272;28;20271;-69
2023/10/27 01:35:23;;;;;;;6.35;5.75;;;15.70;71.70;;;;;;5113182;28;20260;-68
2023/10/27 01:37:48;;;;;;;6.82;6.22;;;15.70;71.80;;;;;;5113133;28;20264;-68
2023/10/27 01:40:14;;;;;;;6.95;6.25;;;15.70;71.80;;;;;;5112309;28;20179;-69
2023/10/27 01:42:39;;;;;;;6.20;5.65;;;15.70;71.80;;;;;;5113094;28;20260;-68
2023/10/27 01:45:05;;;;;;;6.55;5.95;;;15.70;71.80;;;;;;5113049;28;20226;-68
2023/10/27 01:47:31;;;;;;;7.10;6.40;;;15.70;71.80;;;;;;5112301;28;20227;-69
2023/10/27 01:49:57;;;;;;;7.20;6.13;;;15.70;71.80;;;;;;5113058;28;20666;-69
2023/10/27 01:52:22;;;;;;;6.72;6.13;;;15.70;71.80;;;;;;5112848;28;20200;-69
2023/10/27 01:54:48;;;;;;;7.55;6.82;;;15.70;71.80;;;;;;5112576;28;20252;-70
2023/10/27 01:57:14;;;;;;;7.28;6.50;;;15.70;71.80;;;;;;5112905;28;20314;-71
2023/10/27 01:59:39;;;;;;;7.75;7.05;;;15.70;71.80;;;;;;5113136;28;20180;-70
2023/10/27 02:02:05;;;;;;;7.00;6.30;;;15.70;71.80;;;;;;5112087;28;20576;-70
2023/10/27 02:04:34;;;;;;;7.30;6.60;;;15.70;71.80;;;;;;5112955;28;20176;-69
2023/10/27 02:07:00;;;;;;;7.28;6.63;;;15.70;71.80;;;;;;5112289;28;20537;-69
2023/10/27 02:09:25;;;;;;;7.97;7.18;;;15.70;71.80;;;;;;5120830;28;20173;-70
2023/10/27 02:11:51;;;;;;;7.70;6.93;;;15.70;71.80;;;;;;5134145;27;20208;-69
2023/10/27 02:14:17;;;;;;;7.82;7.03;;;15.70;71.90;;;;;;5136599;27;20187;-70
2023/10/27 02:16:45;;;;;;;7.03;6.32;;;15.70;71.90;;;;;;5137309;27;20313;-68
2023/10/27 02:19:13;;;;;;;10.02;7.22;;;15.70;71.90;;;;;;5137015;27;20164;-69
2023/10/27 02:21:38;;;;;;;7.22;6.53;;;15.70;71.90;;;;;;5136391;27;20164;-68
2023/10/27 02:24:04;;;;;;;7.88;7.13;;;15.70;71.90;;;;;;5137071;27;20212;-69
2023/10/27 02:26:29;;;;;;;7.90;7.18;;;15.70;71.90;;;;;;5137275;27;20267;-69
2023/10/27 02:28:55;;;;;;;8.30;7.40;;;15.70;71.90;;;;;;5136311;27;20635;-68
2023/10/27 02:31:21;;;;;;;7.82;6.97;;;15.70;71.90;;;;;;5136764;27;20201;-69
2023/10/27 02:33:47;;;;;;;8.55;7.70;;;15.60;71.90;;;;;;5136953;27;20562;-68
2023/10/27 02:36:12;;;;;;;7.55;6.85;;;15.70;72.00;;;;;;5135972;27;20182;-69
2023/10/27 02:38:38;;;;;;;7.55;6.85;;;15.70;72.00;;;;;;5136846;27;20549;-68
2023/10/27 02:41:08;;;;;;;8.35;7.55;;;15.70;72.00;;;;;;5136566;27;20172;-68
2023/10/27 02:43:34;;;;;;;7.88;7.15;;;15.70;72.00;;;;;;5136263;27;20169;-68
2023/10/27 02:46:02;;;;;;;8.02;7.22;;;15.70;72.00;;;;;;5136589;27;20259;-68
2023/10/27 02:48:28;;;;;;;8.15;7.45;;;15.70;72.00;;;;;;5136634;27;20224;-69
2023/10/27 02:50:53;;;;;;;8.43;7.43;;;15.60;71.90;;;;;;5135804;27;20222;-69
2023/10/27 02:53:19;;;;;;;7.50;6.80;;;15.70;72.00;;;;;;5136587;27;20177;-70
2023/10/27 02:55:44;;;;;;;8.18;7.38;;;15.60;72.00;;;;;;5136724;27;20164;-69
2023/10/27 02:58:10;;;;;;;9.38;8.02;;;15.60;71.90;;;;;;5135626;27;20164;-69
2023/10/27 03:00:40;;;;;;;8.63;7.53;;;15.60;71.90;;;;;;5136493;27;20192;-69
2023/10/27 03:03:06;;;;;;;7.93;7.22;;;15.60;71.90;;;;;;5135933;27;20212;-68
2023/10/27 03:05:31;;;;;;;7.78;6.80;;;15.60;71.90;;;;;;5135632;27;20223;-69
2023/10/27 03:07:57;;;;;;;8.23;7.32;;;15.60;72.00;;;;;;5136532;27;20218;-69
2023/10/27 03:10:22;;;;;;;8.60;7.80;;;15.60;71.90;;;;;;5135528;27;20199;-69
2023/10/27 03:12:48;;;;;;;8.25;7.38;;;15.60;72.00;;;;;;5136195;27;20219;-69
2023/10/27 03:15:13;;;;;;;7.85;7.15;;;15.60;72.00;;;;;;5135856;27;20179;-69
2023/10/27 03:17:39;;;;;;;8.68;7.78;;;15.60;72.00;;;;;;5134260;27;20184;-69
2023/10/27 03:20:05;;;;;;;7.93;7.13;;;15.60;72.00;;;;;;5135455;27;20175;-68
2023/10/27 03:22:32;;;;;;;8.10;7.15;;;15.60;72.00;;;;;;5136164;27;20172;-69
2023/10/27 03:24:58;;;;;;;8.63;7.70;;;15.60;72.00;;;;;;5133986;27;20643;-69
2023/10/27 03:27:24;;;;;;;8.50;7.60;;;15.60;72.10;;;;;;5136022;27;20201;-69
2023/10/27 03:29:50;;;;;;;7.80;7.07;;;15.60;72.10;;;;;;5136064;27;20195;-68
2023/10/27 03:32:16;;;;;;;8.38;7.57;;;15.60;72.10;;;;;;5134822;27;20682;-68
2023/10/27 03:34:43;;;;;;;8.90;7.90;;;15.60;72.00;;;;;;5135722;27;20256;-68
2023/10/27 03:37:09;;;;;;;8.65;7.85;;;15.60;72.10;;;;;;5135664;27;20180;-68
2023/10/27 03:39:34;;;;;;;8.57;7.68;;;15.60;72.10;;;;;;5135184;27;20195;-68
2023/10/27 03:42:00;;;;;;;7.97;7.20;;;15.60;72.10;;;;;;5135451;27;20530;-68
2023/10/27 03:44:25;;;;;;;8.20;7.35;;;15.60;72.20;;;;;;5135631;27;20164;-68
2023/10/27 03:46:51;;;;;;;9.05;8.15;;;15.60;72.20;;;;;;5134863;27;20164;-68
2023/10/27 03:49:16;;;;;;;9.32;8.43;;;15.60;72.20;;;;;;5135199;27;20706;-68
2023/10/27 03:51:42;;;;;;;9.95;8.10;;;15.60;72.20;;;;;;5135651;27;20200;-69
2023/10/27 03:54:07;;;;;;;8.88;8.00;;;15.60;72.20;;;;;;5134625;27;20168;-69
2023/10/27 03:56:33;;;;;;;8.82;7.85;;;15.60;72.20;;;;;;5135472;27;20718;-69
2023/10/27 03:58:59;;;;;;;9.52;8.60;;;15.60;72.20;;;;;;5134987;27;20169;-69
2023/10/27 04:01:27;;;;;;;10.23;8.63;;;15.60;72.20;;;;;;5134565;27;20541;-68
2023/10/27 04:03:56;;;;;;;8.20;7.40;;;15.60;72.30;;;;;;5135202;27;20184;-68
2023/10/27 04:06:21;;;;;;;9.32;8.20;;;15.60;72.30;;;;;;5135065;27;20168;-68
2023/10/27 04:08:47;;;;;;;9.02;8.13;;;15.50;72.20;;;;;;5134549;27;20304;-69
2023/10/27 04:11:12;;;;;;;9.02;8.13;;;15.60;72.20;;;;;;5134751;27;20283;-69
2023/10/27 04:13:38;;;;;;;8.85;7.45;;;15.50;72.20;;;;;;5134734;27;20172;-68
2023/10/27 04:16:04;;;;;;;8.43;7.63;;;15.50;72.20;;;;;;5134762;27;20168;-68
2023/10/27 04:18:30;;;;;;;9.07;8.10;;;15.50;72.20;;;;;;5134892;27;20535;-68
2023/10/27 04:20:55;;;;;;;8.60;7.75;;;15.60;72.30;;;;;;5134376;27;20168;-69
2023/10/27 04:23:21;;;;;;;8.40;7.60;;;15.50;72.30;;;;;;5134466;27;20665;-68
2023/10/27 04:25:47;;;;;;;9.23;8.32;;;15.50;72.40;;;;;;5134906;27;20179;-69
2023/10/27 04:28:13;;;;;;;8.63;7.75;;;15.50;72.30;;;;;;5133862;27;20177;-69
2023/10/27 04:30:41;;;;;;;8.52;7.72;;;15.50;72.40;;;;;;5134693;27;20180;-68
2023/10/27 04:33:09;;;;;;;7.75;7.03;;;15.50;72.40;;;;;;5134289;27;20635;-69
2023/10/27 04:35:35;;;;;;;8.10;7.38;;;15.50;72.40;;;;;;5133677;27;20176;-68
2023/10/27 04:38:01;;;;;;;8.80;7.90;;;15.50;72.50;;;;;;5134322;27;20666;-69
2023/10/27 04:40:28;;;;;;;9.07;8.18;;;15.50;72.40;;;;;;5134804;27;20233;-69
2023/10/27 04:42:56;;;;;;;7.88;7.07;;;15.50;72.40;;;;;;5133907;27;20173;-69
2023/10/27 04:45:22;;;;;;;8.68;7.75;;;15.50;72.50;;;;;;5134052;27;20169;-69
2023/10/27 04:47:47;;;;;;;9.00;8.10;;;15.50;72.40;;;;;;5134065;27;20234;-69
2023/10/27 04:50:13;;;;;;;8.35;7.55;;;15.50;72.40;;;;;;5133371;27;20172;-70
2023/10/27 04:52:39;;;;;;;8.85;7.95;;;15.50;72.40;;;;;;5134250;27;20582;-72
2023/10/27 04:55:06;;;;;;;9.07;8.18;;;15.50;72.50;;;;;;5133785;27;20267;-70
2023/10/27 04:57:32;;;;;;;8.48;7.68;;;15.50;72.50;;;;;;5133261;27;20172;-70
2023/10/27 04:59:58;;;;;;;9.35;8.38;;;15.50;72.50;;;;;;5133759;27;20176;-70
2023/10/27 05:02:24;;;;;;;8.88;7.75;;;15.40;72.40;;;;;;5133919;27;20164;-70
2023/10/27 05:04:49;;;;;;;8.63;7.45;;;15.50;72.50;;;;;;5133725;27;20200;-69
2023/10/27 05:07:15;;;;;;;8.73;7.85;;;15.50;72.50;;;;;;5133902;27;20215;-70
2023/10/27 05:09:40;;;;;;;8.57;7.78;;;15.50;72.60;;;;;;5133933;27;20661;-70
2023/10/27 05:12:06;;;;;;;9.35;8.45;;;15.50;73.30;;;;;;5133001;27;20203;-71
2023/10/27 05:14:34;;;;;;;8.18;7.38;;;15.50;72.50;;;;;;5133941;27;20169;-71
2023/10/27 05:17:00;;;;;;;8.32;7.53;;;15.50;72.60;;;;;;5132770;27;20647;-71
2023/10/27 05:19:25;;;;;;;8.73;7.82;;;15.40;72.40;;;;;;5134090;27;20184;-69
2023/10/27 05:21:51;;;;;;;8.00;7.20;;;15.50;72.50;;;;;;5134060;27;20172;-69
2023/10/27 05:24:16;;;;;;;8.32;7.53;;;15.50;72.60;;;;;;5133074;27;20175;-71
2023/10/27 05:26:42;;;;;;;8.02;7.20;;;15.50;72.60;;;;;;5133844;27;20173;-70
2023/10/27 05:29:08;;;;;;;8.48;7.57;;;15.50;73.00;;;;;;5133739;27;20178;-70
2023/10/27 05:31:34;;;;;;;8.52;7.53;;;15.50;72.60;;;;;;5133165;28;20215;-69
2023/10/27 05:34:00;;;;;;;8.85;7.68;;;15.50;73.50;;;;;;5133357;28;20707;-70
2023/10/27 05:36:26;;;;;;;8.65;7.75;;;15.50;72.70;;;;;;5133867;28;20263;-69
2023/10/27 05:38:51;;;;;;;8.65;7.78;;;15.50;72.60;;;;;;5133135;28;20169;-70
2023/10/27 05:41:16;;;;;;;7.60;6.90;;;15.40;72.50;;;;;;5133462;28;20186;-69
2023/10/27 05:43:42;;;;;;;7.97;7.22;;;15.50;72.60;;;;;;5133600;28;20239;-68
2023/10/27 05:46:08;;;;;;;7.30;6.60;;;15.50;72.60;;;;;;5132577;27;20263;-69
2023/10/27 05:48:33;;;;;;;8.27;7.38;;;15.40;72.60;;;;;;5137465;27;20219;-70
2023/10/27 05:50:59;;;;;;;7.55;6.85;;;15.40;72.60;;;;;;5137597;27;20196;-71
2023/10/27 05:53:25;;;;;;;8.88;7.95;;;15.40;72.60;;;;;;5137182;27;20178;-70
2023/10/27 05:55:51;;;;;;;7.45;6.75;;;15.40;72.60;;;;;;5137658;27;20172;-70
2023/10/27 05:58:16;;;;;;;7.53;6.75;;;15.40;72.60;;;;;;5137387;27;20176;-70
2023/10/27 06:00:42;;;;;;;7.60;6.82;;;15.40;72.60;;;;;;5136879;27;20710;-69
2023/10/27 06:03:07;;;;;;;7.50;6.72;;;15.40;72.70;;;;;;5137433;27;20175;-70
2023/10/27 06:05:33;;;;;;;7.85;7.15;;;15.40;72.60;;;;;;5137642;27;20174;-69
2023/10/27 06:07:58;;;;;;;7.72;6.97;;;15.40;72.60;;;;;;5136632;27;20263;-69
2023/10/27 06:10:24;;;;;;;7.45;6.75;;;15.50;72.60;;;;;;5137602;27;20245;-69
2023/10/27 06:12:49;;;;;;;7.50;6.80;;;15.50;72.80;;;;;;5137297;27;20250;-69
2023/10/27 06:15:15;;;;;;;6.72;6.10;;;15.60;72.70;;;;;;5136556;27;20179;-69
2023/10/27 06:17:40;;;;;;;6.65;6.07;;;15.70;72.60;;;;;;5137260;27;20168;-69
2023/10/27 06:20:07;;;;;;;6.63;5.90;;;15.80;72.40;;;;;;5137173;27;20259;-69
2023/10/27 06:22:32;;;;;;;5.80;5.30;;;16.00;72.30;;;;;;5136670;27;20221;-69
2023/10/27 06:24:58;;;;;;;5.47;5.03;;;16.20;72.00;;;;;;5136915;27;20173;-69
2023/10/27 06:27:23;;;;;;;5.43;4.93;;;16.30;71.60;;;;;;5136359;27;20169;-69
2023/10/27 06:29:49;;;;;;;5.35;4.93;;;16.60;71.10;;;;;;5137010;27;20183;-69
2023/10/27 06:32:14;;;;;;;5.10;4.63;;;16.70;70.50;;;;;;5136914;27;20207;-68
2023/10/27 06:34:40;;;;;;;5.95;5.05;;;17.10;69.60;;;;;;5136478;27;20172;-69
2023/10/27 06:37:06;;;;;;;4.78;4.38;;;17.30;68.70;;;;;;5136731;27;20217;-69
2023/10/27 06:39:32;;;;;;;4.57;4.18;;;17.50;68.20;;;;;;5136991;27;20541;-69
2023/10/27 06:41:58;;;;;;;4.10;3.80;;;17.60;67.70;;;;;;5136049;27;20168;-69
2023/10/27 06:44:24;;;;;;;4.70;4.30;;;17.70;67.20;;;;;;5136842;27;20172;-69
2023/10/27 06:46:50;;;;;;;5.05;4.45;;;17.80;67.00;;;;;;5136759;27;20258;-68
2023/10/27 06:49:15;;;;;;;4.47;4.07;;;17.90;66.80;;;;;;5135591;27;20277;-70
2023/10/27 06:51:41;;;;;;;4.18;3.88;;;17.90;66.70;;;;;;5136584;27;20204;-69
2023/10/27 06:54:07;;;;;;;4.32;3.92;;;17.90;67.30;;;;;;5136429;27;20180;-70
2023/10/27 06:56:32;;;;;;;3.97;3.67;;;17.90;66.50;;;;;;5135875;27;20218;-70
2023/10/27 06:58:58;;;;;;;4.57;4.18;;;18.00;66.50;;;;;;5135910;27;20177;-70
2023/10/27 07:01:23;;;;;;;4.50;4.10;;;18.00;66.40;;;;;;5136674;27;20168;-70
2023/10/27 07:03:50;;;;;;;4.05;3.75;;;17.90;66.50;;;;;;5135873;27;20260;-69
2023/10/27 07:06:15;;;;;;;3.90;3.60;;;17.90;66.50;;;;;;5136144;27;20207;-70
2023/10/27 07:08:45;;;;;;;4.13;3.78;;;17.80;66.70;;;;;;5136532;27;20204;-71
2023/10/27 07:11:11;;;;;;;4.18;3.78;;;17.70;67.10;;;;;;5135010;27;20200;-70
2023/10/27 07:13:36;;;;;;;3.70;3.40;;;17.60;67.30;;;;;;5136124;27;20182;-70
2023/10/27 07:16:02;;;;;;;4.05;3.72;;;17.50;67.60;;;;;;5135705;27;20216;-70
2023/10/27 07:18:28;;;;;;;4.07;3.72;;;17.40;67.80;;;;;;5135385;27;20176;-70
2023/10/27 07:20:54;;;;;;;3.83;3.53;;;17.40;68.10;;;;;;5136234;27;20176;-70
2023/10/27 07:23:19;;;;;;;4.53;4.13;;;17.30;68.40;;;;;;5135998;27;20175;-70
2023/10/27 07:25:45;;;;;;;5.05;3.63;;;17.20;68.60;;;;;;5135357;27;20179;-70
2023/10/27 07:28:11;;;;;;;4.57;4.18;;;17.20;68.70;;;;;;5135645;27;20624;-70
2023/10/27 07:30:37;;;;;;;4.57;4.18;;;17.20;68.70;;;;;;5135241;27;20176;-70
2023/10/27 07:33:03;;;;;;;4.13;3.72;;;17.20;68.70;;;;;;5135518;27;20623;-69
2023/10/27 07:35:30;;;;;;;4.03;3.67;;;17.20;68.60;;;;;;5136082;27;20587;-69
2023/10/27 07:37:56;;;;;;;3.97;3.67;;;17.30;68.60;;;;;;5135179;27;20215;-69
2023/10/27 07:40:21;;;;;;;4.28;3.90;;;17.40;68.60;;;;;;5135402;27;20192;-69
2023/10/27 07:42:47;;;;;;;4.22;3.83;;;17.40;68.70;;;;;;5135451;27;20172;-70
2023/10/27 07:45:13;;;;;;;4.88;3.65;;;17.40;68.50;;;;;;5134790;27;20172;-71
2023/10/27 07:47:38;;;;;;;4.25;3.65;;;17.40;68.60;;;;;;5135565;27;20208;-69
2023/10/27 07:50:05;;;;;;;3.72;3.28;;;17.30;69.50;;;;;;5135303;27;20180;-73
2023/10/27 07:52:31;;;;;;;3.92;3.53;;;17.30;68.90;;;;;;5134707;27;20204;-70
2023/10/27 07:54:57;;;;;;;4.55;3.67;;;17.20;69.10;;;;;;5135252;27;20221;-69
2023/10/27 07:57:23;;;;;;;3.95;3.55;;;17.20;69.60;;;;;;5135515;27;20177;-68
2023/10/27 07:59:48;;;;;;;5.97;4.45;;;17.20;69.70;;;;;;5134605;27;20586;-69
2023/10/27 08:02:14;;;;;;;4.40;3.50;;;17.20;70.10;;;;;;5135235;27;20172;-70
2023/10/27 08:04:40;;;;;;;4.68;4.25;;;17.10;70.10;;;;;;5135433;27;20180;-68
2023/10/27 08:07:06;;;;;;;5.03;3.88;;;17.20;70.20;;;;;;5134277;27;20176;-68
2023/10/27 08:09:31;;;;;;;4.80;3.95;;;17.20;70.20;;;;;;5134493;27;20168;-69
2023/10/27 08:11:57;;;;;;;5.30;3.88;;;17.20;70.30;;;;;;5135195;27;20216;-69
2023/10/27 08:14:23;;;;;;;4.22;3.63;;;17.20;70.30;;;;;;5134389;27;20169;-70
2023/10/27 08:16:49;;;;;;;4.18;3.75;;;17.20;70.10;;;;;;5134921;27;20630;-70
2023/10/27 08:19:14;;;;;;;5.45;4.10;;;17.10;70.30;;;;;;5134706;27;20176;-70
2023/10/27 08:21:40;;;;;;;4.80;3.80;;;17.10;70.50;;;;;;5134291;27;20176;-70
2023/10/27 08:24:06;;;;;;;5.07;3.90;;;17.10;70.60;;;;;;5134389;27;20176;-70
2023/10/27 08:26:32;;;;;;;4.35;3.63;;;17.20;70.80;;;;;;5134859;27;20233;-70
2023/10/27 08:28:57;;;;;;;3.95;3.55;;;17.20;70.70;;;;;;5133880;27;20520;-69
2023/10/27 08:31:23;;;;;;;4.88;3.65;;;17.10;70.60;;;;;;5134604;27;20200;-69
2023/10/27 08:33:49;;;;;;;4.90;3.97;;;17.10;70.60;;;;;;5134791;27;20284;-67
2023/10/27 08:36:15;;;;;;;5.85;3.95;;;17.10;70.90;;;;;;5133774;27;20173;-67
2023/10/27 08:38:41;;;;;;;9.68;4.05;;;17.10;70.80;;;;;;5134550;27;20193;-66
2023/10/27 08:41:07;;;;;;;4.60;4.00;;;17.00;70.80;;;;;;5133669;27;20176;-66
2023/10/27 08:43:33;;;;;;;8.32;3.97;;;17.00;70.90;;;;;;5116200;27;20534;-66
2023/10/27 08:46:05;;;;;;;6.28;4.55;;;17.00;70.90;;;;;;5134227;27;20160;-68
2023/10/27 08:48:32;;;;;;;5.53;4.40;;;17.00;71.20;;;;;;5116059;27;20228;-69
2023/10/27 08:50:57;;;;;;;5.70;3.90;;;17.00;71.20;;;;;;5134136;27;20200;-71
2023/10/27 08:53:23;;;;;;;6.50;4.13;;;17.00;71.10;;;;;;5115904;27;20597;-71
2023/10/27 08:55:49;;;;;;;4.82;3.58;;;17.00;71.10;;;;;;5115360;27;20164;-70
2023/10/27 08:58:14;;;;;;;4.65;4.10;;;17.00;71.00;;;;;;5134091;27;20203;-72
2023/10/27 09:00:40;;;;;;;3.40;3.10;;;17.00;71.00;;;;;;5134507;27;20179;-72
2023/10/27 09:03:18;;;;;;;5.55;3.70;;;17.00;71.00;;;;;;5133267;27;20172;-72
2023/10/27 09:05:44;;;;;;;4.93;4.40;;;17.10;71.20;;;;;;5134058;27;20172;-69
2023/10/27 09:08:10;;;;;;;5.10;3.97;;;17.10;71.20;;;;;;5133949;27;20303;-71
2023/10/27 09:10:36;;;;;;;4.97;3.88;;;17.10;71.20;;;;;;5133495;27;20164;-71
2023/10/27 09:13:02;;;;;;;4.35;3.95;;;17.00;71.20;;;;;;5133734;27;20211;-70
2023/10/27 09:15:39;;;;;;;4.45;4.05;;;17.20;71.40;;;;;;5134184;27;20168;-69
2023/10/27 09:18:05;;;;;;;3.78;3.47;;;17.00;72.10;;;;;;5114880;28;20176;-70
2023/10/27 09:20:30;;;;;;;5.40;4.10;;;17.00;71.40;;;;;;5133596;27;20639;-71
2023/10/27 09:22:57;;;;;;;4.43;3.88;;;16.90;71.40;;;;;;5133210;27;20233;-69
2023/10/27 09:25:28;;;;;;;3.78;3.35;;;16.90;71.50;;;;;;5133291;27;20173;-70
2023/10/27 09:27:54;;;;;;;4.65;4.18;;;16.90;71.60;;;;;;5116469;27;20172;-70
2023/10/27 09:30:30;;;;;;;5.00;3.63;;;16.90;71.70;;;;;;5132984;27;20177;-69
2023/10/27 09:33:19;;;;;;;5.05;4.07;;;16.90;71.70;;;;;;5133606;27;20291;-68
2023/10/27 09:35:45;;;;;;;4.03;3.65;;;16.80;71.70;;;;;;5133705;28;20637;-70
2023/10/27 09:38:12;;;;;;;4.28;3.85;;;16.80;71.90;;;;;;5132807;28;20172;-70
2023/10/27 09:40:38;;;;;;;3.78;3.47;;;16.80;71.80;;;;;;5133885;28;20203;-69
2023/10/27 09:43:06;;;;;;;4.30;3.90;;;16.70;71.80;;;;;;5133498;28;20196;-70
2023/10/27 09:45:33;;;;;;;4.68;4.03;;;16.80;72.00;;;;;;5098114;28;20259;-68
2023/10/27 09:48:03;;;;;;;6.07;3.97;;;16.70;71.90;;;;;;5133367;28;20228;-70
2023/10/27 09:50:29;;;;;;;5.43;3.80;;;16.70;71.90;;;;;;5133614;28;20647;-69
2023/10/27 09:52:58;;;;;;;5.20;4.05;;;16.70;71.90;;;;;;5132977;28;20213;-69
2023/10/27 09:55:24;;;;;;;3.55;3.25;;;16.80;72.00;;;;;;5133577;28;20665;-69
2023/10/27 09:57:49;;;;;;;3.90;3.60;;;16.80;71.90;;;;;;5115128;28;20221;-69
2023/10/27 10:00:18;;;;;;;3.92;3.45;;;16.90;72.00;;;;;;5132429;28;20172;-69
2023/10/27 10:02:43;;;;;;;4.45;3.75;;;17.00;71.80;;;;;;5133702;28;20191;-68
2023/10/27 10:05:09;;;;;;;3.47;3.17;;;17.00;71.70;;;;;;5115127;28;20627;-69
2023/10/27 10:07:44;;;;;;;4.15;3.80;;;17.10;71.50;;;;;;5132983;28;20168;-68
2023/10/27 10:10:16;;;;;;;3.78;3.40;;;17.10;71.30;;;;;;5133278;28;20180;-68
2023/10/27 10:13:04;;;;;;;3.63;3.33;;;17.20;71.10;;;;;;5132856;28;20220;-68
2023/10/27 10:15:44;;;;;;;5.13;3.30;;;17.30;70.80;;;;;;5133672;28;20582;-68
2023/10/27 10:18:25;;;;;;;3.33;3.05;;;17.40;70.70;;;;;;5133137;28;20176;-69
2023/10/27 10:20:57;;;;;;;3.72;3.42;;;17.50;70.30;;;;;;5132666;28;20177;-67
2023/10/27 10:23:24;;;;;;;3.83;3.53;;;17.60;70.10;;;;;;5133259;28;20631;-67
2023/10/27 10:25:56;;;;;;;3.55;3.10;;;17.80;69.90;;;;;;5133393;28;20626;-67
2023/10/27 10:28:27;;;;;;;3.75;3.33;;;17.80;69.70;;;;;;5132130;28;20168;-70
2023/10/27 10:31:10;;;;;;;3.70;3.10;;;17.80;69.40;;;;;;5133048;28;20561;-67
2023/10/27 10:33:36;;;;;;;3.55;3.17;;;17.80;69.30;;;;;;5134010;27;20237;-67
2023/10/27 10:36:24;;;;;;;5.15;3.47;;;17.80;69.00;;;;;;5136492;27;20657;-68
2023/10/27 10:38:51;;;;;;;4.63;3.40;;;17.90;68.80;;;;;;5136788;27;20251;-68
2023/10/27 10:41:18;;;;;;;4.22;3.42;;;17.90;68.70;;;;;;5135876;27;20181;-68
2023/10/27 10:43:44;;;;;;;3.95;3.45;;;17.80;68.80;;;;;;5135015;27;20175;-67
2023/10/27 10:46:13;;;;;;;3.72;3.33;;;17.80;68.70;;;;;;5136532;27;20263;-67
2023/10/27 10:48:42;;;;;;;4.00;3.70;;;17.70;68.80;;;;;;5135873;27;20220;-66
2023/10/27 10:51:16;;;;;;;3.72;3.10;;;17.70;68.90;;;;;;5136171;27;20212;-67
2023/10/27 10:53:42;;;;;;;3.35;3.00;;;17.60;69.00;;;;;;5137118;27;20200;-67
2023/10/27 10:56:08;;;;;;;3.40;3.20;;;17.60;69.10;;;;;;5135734;27;20211;-69
2023/10/27 10:58:34;;;;;;;5.90;3.50;;;17.60;69.10;;;;;;5136823;27;20176;-70
2023/10/27 11:01:00;;;;;;;3.60;3.03;;;17.60;69.10;;;;;;5118027;27;20199;-69
2023/10/27 11:03:28;;;;;;;4.03;3.17;;;17.70;69.20;;;;;;5135936;27;20247;-71
2023/10/27 11:05:58;;;;;;;3.70;3.40;;;17.70;69.10;;;;;;5136519;27;20187;-71
2023/10/27 11:08:24;;;;;;;5.63;3.25;;;17.70;69.10;;;;;;5118755;27;20251;-70
2023/10/27 11:11:09;;;;;;;5.30;3.70;;;17.70;69.10;;;;;;5135498;27;20176;-68
2023/10/27 11:13:45;;;;;;;4.20;3.30;;;17.70;69.30;;;;;;5136573;27;20176;-68
2023/10/27 11:16:23;;;;;;;4.95;3.83;;;17.60;69.50;;;;;;5135178;27;20172;-69
2023/10/27 11:18:51;;;;;;;3.85;3.38;;;17.60;69.60;;;;;;5136067;27;20224;-69
2023/10/27 11:21:27;;;;;;;6.22;3.58;;;17.60;69.70;;;;;;5135765;27;20187;-70
2023/10/27 11:23:53;;;;;;;7.57;4.05;;;17.60;69.60;;;;;;5135171;27;20172;-71
2023/10/27 11:26:19;;;;;;;5.05;3.53;;;17.60;69.60;;;;;;5135502;27;20191;-71
2023/10/27 11:28:45;;;;;;;5.72;3.70;;;17.60;69.50;;;;;;5135831;27;20184;-70
2023/10/27 11:31:25;;;;;;;5.07;3.70;;;17.60;69.60;;;;;;5134538;27;20224;-71
2023/10/27 11:34:13;;;;;;;4.32;3.05;;;17.60;69.60;;;;;;5135546;27;20176;-71
2023/10/27 11:36:43;;;;;;;4.18;3.72;;;17.50;69.80;;;;;;5135638;27;20176;-71
2023/10/27 11:39:22;;;;;;;4.22;3.55;;;17.50;69.90;;;;;;5135262;27;20203;-71
2023/10/27 11:42:00;;;;;;;3.95;3.60;;;17.40;70.00;;;;;;5135792;27;20226;-71
2023/10/27 11:44:27;;;;;;;5.15;3.53;;;17.40;70.20;;;;;;5134235;27;20168;-71
2023/10/27 11:46:56;;;;;;;4.18;3.20;;;17.40;70.20;;;;;;5135832;27;20197;-71
2023/10/27 11:49:23;;;;;;;4.75;3.95;;;17.50;70.20;;;;;;5135452;27;20191;-71
2023/10/27 11:51:50;;;;;;;3.88;3.47;;;17.50;70.20;;;;;;5134881;27;20208;-71
2023/10/27 11:54:15;;;;;;;4.22;3.83;;;17.50;70.20;;;;;;5135147;27;20198;-71
2023/10/27 11:56:41;;;;;;;3.83;3.45;;;17.40;70.20;;;;;;5135324;27;20192;-70
2023/10/27 11:59:07;;;;;;;5.10;3.42;;;17.40;70.30;;;;;;5134335;27;20647;-71
2023/10/27 12:01:33;;;;;;;4.00;3.70;;;17.40;70.30;;;;;;5135530;27;20546;-71
2023/10/27 12:04:00;;;;;;;5.40;3.67;;;17.30;70.20;;;;;;5135172;27;20169;-71
2023/10/27 12:06:25;;;;;;;3.85;3.55;;;17.30;70.50;;;;;;5134665;27;20173;-71
2023/10/27 12:08:51;;;;;;;3.80;3.50;;;17.30;70.60;;;;;;5135203;27;20580;-69
2023/10/27 12:11:17;;;;;;;3.70;3.40;;;17.30;70.60;;;;;;5134829;27;20633;-71
2023/10/27 12:13:43;;;;;;;4.13;3.65;;;17.20;70.60;;;;;;5134659;27;20179;-70
2023/10/27 12:16:09;;;;;;;3.70;3.40;;;17.20;70.80;;;;;;5134665;27;20538;-70
2023/10/27 12:18:34;;;;;;;4.88;4.00;;;17.20;70.80;;;;;;5134892;27;20172;-71
2023/10/27 12:21:01;;;;;;;4.80;4.22;;;17.20;71.00;;;;;;5133903;27;20184;-70
2023/10/27 12:23:29;;;;;;;4.20;3.78;;;17.10;71.00;;;;;;5134953;27;20173;-71
2023/10/27 12:25:57;;;;;;;4.13;3.72;;;17.10;71.10;;;;;;5134781;27;20179;-69
2023/10/27 12:28:23;;;;;;;4.20;3.60;;;17.10;72.00;;;;;;5134640;27;20198;-70
2023/10/27 12:30:49;;;;;;;4.35;3.95;;;17.00;71.10;;;;;;5134845;27;20180;-71
2023/10/27 12:33:14;;;;;;;4.40;4.00;;;17.00;71.20;;;;;;5133848;27;20542;-71
2023/10/27 12:35:40;;;;;;;4.13;3.83;;;17.00;71.20;;;;;;5134819;27;20209;-71
2023/10/27 12:38:06;;;;;;;4.30;3.90;;;17.00;71.30;;;;;;5134304;27;20567;-71
2023/10/27 12:40:34;;;;;;;4.45;4.05;;;17.00;71.40;;;;;;5133854;27;20213;-70
2023/10/27 12:43:00;;;;;;;4.20;3.88;;;16.90;71.40;;;;;;5134408;27;20172;-72
2023/10/27 12:45:26;;;;;;;3.80;3.50;;;16.90;71.40;;;;;;5134695;27;20270;-71